Time;durP1;ratioP1;P1;durP2;ratioP2;P2;SDS_P1;SDS_P2;PMS_P1;PMS_P2;Temp;Humidity;BMP_temperature;BMP_pressure;BME280_temperature;BME280_humidity;BME280_pressure;Samples;Min_cycle;Max_cycle;Signal;HPM_P1;HPM_P2
2021/01/22 00:01:56;;;;;;;4.23;2.47;;;4.30;95.60;;;;;;4406485;32;20226;-68
2021/01/22 00:04:23;;;;;;;4.97;3.77;;;4.50;95.60;;;;;;4398993;32;20229;-68
2021/01/22 00:06:49;;;;;;;6.33;4.17;;;4.40;95.60;;;;;;4404346;32;20148;-65
2021/01/22 00:09:16;;;;;;;7.63;4.33;;;4.40;95.60;;;;;;4405905;32;20235;-69
2021/01/22 00:11:42;;;;;;;8.93;4.60;;;4.40;95.60;;;;;;4395021;32;20283;-65
2021/01/22 00:14:09;;;;;;;6.67;5.00;;;4.40;95.60;;;;;;4391107;32;20227;-68
2021/01/22 00:16:35;;;;;;;5.73;4.80;;;4.40;95.50;;;;;;4402989;32;20632;-66
2021/01/22 00:19:01;;;;;;;6.47;4.87;;;4.40;95.50;;;;;;4402760;32;20243;-66
2021/01/22 00:21:29;;;;;;;5.57;4.73;;;4.40;95.50;;;;;;4405584;32;20224;-66
2021/01/22 00:23:56;;;;;;;8.33;4.77;;;4.30;95.30;;;;;;4404946;32;20148;-66
2021/01/22 00:26:22;;;;;;;5.03;4.40;;;4.30;95.30;;;;;;4403996;32;20172;-65
2021/01/22 00:28:48;;;;;;;6.07;3.50;;;4.30;95.30;;;;;;4404360;32;20225;-66
2021/01/22 00:31:15;;;;;;;6.93;3.40;;;4.30;95.30;;;;;;4404239;32;20238;-67
2021/01/22 00:33:42;;;;;;;7.00;4.10;;;4.30;95.30;;;;;;4403708;32;20156;-66
2021/01/22 00:36:08;;;;;;;6.90;4.40;;;4.40;95.30;;;;;;4404473;32;20188;-67
2021/01/22 00:38:35;;;;;;;6.50;4.33;;;4.30;95.40;;;;;;4404903;32;20148;-66
2021/01/22 00:41:01;;;;;;;4.83;3.37;;;4.30;95.30;;;;;;4408087;32;20241;-66
2021/01/22 00:43:27;;;;;;;4.10;3.47;;;4.30;95.30;;;;;;4415350;32;20263;-66
2021/01/22 00:45:54;;;;;;;6.57;3.57;;;4.30;95.30;;;;;;4403650;32;20448;-67
2021/01/22 00:48:27;;;;;;;4.97;3.10;;;4.20;95.30;;;;;;4401765;32;20237;-65
2021/01/22 00:50:54;;;;;;;7.87;4.07;;;4.20;95.40;;;;;;4394087;32;20159;-66
2021/01/22 00:53:20;;;;;;;6.53;4.03;;;4.30;95.50;;;;;;4394603;32;20156;-67
2021/01/22 00:55:46;;;;;;;8.03;3.93;;;4.30;95.50;;;;;;4402524;32;20163;-67
2021/01/22 00:58:13;;;;;;;6.93;4.30;;;4.30;95.50;;;;;;4403777;32;20197;-67
2021/01/22 01:00:40;;;;;;;6.13;3.97;;;4.30;95.50;;;;;;4405924;32;20146;-66
2021/01/22 01:03:06;;;;;;;9.03;4.37;;;4.30;95.60;;;;;;4401733;32;20222;-65
2021/01/22 01:05:34;;;;;;;7.83;4.90;;;4.40;95.70;;;;;;4393757;32;20181;-65
2021/01/22 01:08:00;;;;;;;6.83;4.37;;;4.30;95.60;;;;;;4405875;32;20630;-65
2021/01/22 01:10:26;;;;;;;6.10;4.87;;;4.30;95.70;;;;;;4404309;32;20218;-65
2021/01/22 01:12:53;;;;;;;9.03;6.33;;;4.30;95.70;;;;;;4405722;32;20195;-67
2021/01/22 01:15:19;;;;;;;8.90;6.50;;;4.30;95.80;;;;;;4407169;32;20173;-69
2021/01/22 01:17:45;;;;;;;12.93;6.80;;;4.40;95.80;;;;;;4393599;32;20156;-68
2021/01/22 01:20:12;;;;;;;11.67;6.57;;;4.40;95.80;;;;;;4400095;32;20667;-68
2021/01/22 01:22:39;;;;;;;11.40;6.80;;;4.30;95.90;;;;;;4404937;32;20261;-66
2021/01/22 01:25:07;;;;;;;11.40;7.40;;;4.40;96.00;;;;;;4404994;32;20230;-66
2021/01/22 01:27:33;;;;;;;13.63;7.67;;;4.30;96.00;;;;;;4402912;32;20219;-68
2021/01/22 01:30:00;;;;;;;12.57;7.30;;;4.30;95.90;;;;;;4404805;32;20655;-68
2021/01/22 01:32:26;;;;;;;14.93;7.37;;;4.30;96.20;;;;;;4401761;32;20173;-68
2021/01/22 01:34:52;;;;;;;13.63;7.70;;;4.20;96.00;;;;;;4397959;32;20169;-68
2021/01/22 01:37:18;;;;;;;13.83;7.73;;;4.30;96.10;;;;;;4398475;32;20487;-68
2021/01/22 01:39:46;;;;;;;13.40;8.20;;;4.30;96.10;;;;;;4401502;32;20636;-66
2021/01/22 01:42:13;;;;;;;17.43;9.93;;;4.30;96.10;;;;;;4404911;32;20155;-67
2021/01/22 01:44:40;;;;;;;15.87;8.60;;;4.30;96.10;;;;;;4402663;32;20290;-67
2021/01/22 01:47:06;;;;;;;15.70;9.03;;;4.30;96.10;;;;;;4404023;32;20219;-65
2021/01/22 01:49:32;;;;;;;14.57;9.03;;;4.30;96.10;;;;;;4403280;32;20639;-65
2021/01/22 01:51:59;;;;;;;16.03;9.40;;;4.30;96.20;;;;;;4406833;32;20223;-65
2021/01/22 01:54:26;;;;;;;18.80;10.93;;;4.30;96.20;;;;;;4402769;32;20220;-67
2021/01/22 01:56:55;;;;;;;15.93;10.30;;;4.30;96.20;;;;;;4405066;32;20666;-68
2021/01/22 01:59:22;;;;;;;19.30;11.50;;;4.30;96.10;;;;;;4403128;32;20175;-68
2021/01/22 02:01:50;;;;;;;17.90;11.23;;;4.20;96.20;;;;;;4404416;32;20638;-67
2021/01/22 02:04:16;;;;;;;17.03;10.93;;;4.30;96.20;;;;;;4403440;32;20253;-67
2021/01/22 02:06:42;;;;;;;16.77;10.80;;;4.30;96.20;;;;;;4402949;32;20631;-65
2021/01/22 02:09:09;;;;;;;22.20;13.47;;;4.30;96.20;;;;;;4401573;32;20207;-66
2021/01/22 02:11:35;;;;;;;17.63;11.50;;;4.30;96.20;;;;;;4395426;32;20178;-67
2021/01/22 02:14:03;;;;;;;24.30;13.57;;;4.30;96.10;;;;;;4401067;32;20176;-66
2021/01/22 02:16:31;;;;;;;19.40;12.10;;;4.30;96.10;;;;;;4403033;32;20187;-67
2021/01/22 02:18:59;;;;;;;22.47;13.30;;;4.20;96.20;;;;;;4402221;32;20251;-65
2021/01/22 02:21:30;;;;;;;19.07;11.80;;;4.30;96.30;;;;;;4396990;32;20224;-64
2021/01/22 02:24:00;;;;;;;16.20;10.87;;;4.40;96.30;;;;;;4399572;32;20159;-67
2021/01/22 02:26:50;;;;;;;16.50;10.60;;;4.40;96.20;;;;;;4403253;32;20282;-65
2021/01/22 02:29:17;;;;;;;15.67;10.57;;;4.40;96.00;;;;;;4404214;32;20170;-66
2021/01/22 02:31:45;;;;;;;20.83;12.90;;;4.30;95.80;;;;;;4400675;32;20172;-67
2021/01/22 02:34:16;;;;;;;18.53;12.27;;;4.20;95.90;;;;;;4403332;32;20176;-65
2021/01/22 02:36:45;;;;;;;17.43;11.37;;;4.20;96.10;;;;;;4402636;32;20322;-67
2021/01/22 02:39:13;;;;;;;16.07;11.63;;;4.20;96.30;;;;;;4396543;32;20223;-64
2021/01/22 02:41:42;;;;;;;16.27;11.33;;;4.20;96.40;;;;;;4400558;32;20542;-67
2021/01/22 02:44:10;;;;;;;12.67;8.50;;;4.30;96.50;;;;;;4401816;32;20491;-68
2021/01/22 02:46:38;;;;;;;10.60;7.60;;;4.30;96.50;;;;;;4406072;32;20151;-69
2021/01/22 02:49:04;;;;;;;13.90;8.47;;;4.30;96.40;;;;;;4407591;32;20541;-67
2021/01/22 02:51:30;;;;;;;8.03;5.87;;;4.40;96.40;;;;;;4405912;32;20148;-65
2021/01/22 02:53:57;;;;;;;10.37;6.47;;;4.30;96.40;;;;;;4405600;32;20671;-66
2021/01/22 02:56:33;;;;;;;7.83;5.40;;;4.30;96.30;;;;;;4407365;32;20148;-65
2021/01/22 02:59:10;;;;;;;5.30;3.67;;;4.30;96.20;;;;;;4406639;32;20230;-68
2021/01/22 03:01:48;;;;;;;4.13;3.23;;;4.30;96.10;;;;;;4404880;32;20216;-66
2021/01/22 03:04:16;;;;;;;4.83;2.27;;;4.20;95.70;;;;;;4401804;32;20140;-68
2021/01/22 03:06:46;;;;;;;4.60;2.27;;;4.10;95.60;;;;;;4406991;32;20147;-66
2021/01/22 03:09:20;;;;;;;5.27;2.10;;;3.90;95.60;;;;;;4406217;32;20163;-67
2021/01/22 03:11:50;;;;;;;4.37;2.17;;;3.80;95.60;;;;;;4405213;32;20222;-66
2021/01/22 03:14:18;;;;;;;3.43;1.57;;;3.70;95.60;;;;;;4405299;32;20166;-67
2021/01/22 03:16:45;;;;;;;3.60;1.33;;;3.70;95.80;;;;;;4403901;32;20195;-67
2021/01/22 03:19:11;;;;;;;4.87;1.53;;;3.70;95.90;;;;;;4405427;32;20194;-66
2021/01/22 03:21:37;;;;;;;2.90;1.30;;;3.60;95.80;;;;;;4405529;32;20250;-66
2021/01/22 03:24:05;;;;;;;4.07;1.03;;;3.60;95.90;;;;;;4405632;32;20265;-65
2021/01/22 03:26:31;;;;;;;5.80;1.00;;;3.60;96.00;;;;;;4405566;32;20289;-68
2021/01/22 03:28:57;;;;;;;5.63;1.03;;;3.50;96.00;;;;;;4406173;32;20150;-68
2021/01/22 03:31:24;;;;;;;2.00;0.87;;;3.40;95.90;;;;;;4405339;32;20243;-63
2021/01/22 03:33:51;;;;;;;2.13;0.80;;;3.50;96.00;;;;;;4406792;32;20459;-67
2021/01/22 03:36:17;;;;;;;6.40;1.90;;;3.50;96.10;;;;;;4407074;32;20204;-65
2021/01/22 03:38:43;;;;;;;2.07;0.93;;;3.50;96.20;;;;;;4403218;32;20255;-65
2021/01/22 03:41:10;;;;;;;4.33;1.00;;;3.50;96.40;;;;;;4406209;32;20171;-64
2021/01/22 03:43:36;;;;;;;7.07;1.30;;;3.40;96.20;;;;;;4406385;32;20223;-65
2021/01/22 03:46:03;;;;;;;4.53;1.00;;;3.40;96.20;;;;;;4405388;32;20232;-66
2021/01/22 03:48:30;;;;;;;3.77;1.13;;;3.40;96.20;;;;;;4402995;32;20222;-67
2021/01/22 03:50:56;;;;;;;4.17;1.00;;;3.40;96.20;;;;;;4397542;32;20145;-67
2021/01/22 03:53:22;;;;;;;3.97;1.40;;;3.40;96.40;;;;;;4402210;32;20180;-67
2021/01/22 03:55:49;;;;;;;3.47;1.03;;;3.40;96.30;;;;;;4401979;32;20218;-64
2021/01/22 03:58:15;;;;;;;2.63;0.87;;;3.30;96.20;;;;;;4403086;32;20670;-67
2021/01/22 04:00:42;;;;;;;2.67;1.20;;;3.30;96.40;;;;;;4413912;32;20163;-67
2021/01/22 04:03:09;;;;;;;2.97;1.70;;;3.30;96.30;;;;;;4407367;32;20326;-65
2021/01/22 04:05:36;;;;;;;4.63;1.77;;;3.30;96.30;;;;;;4394232;32;20148;-67
2021/01/22 04:08:03;;;;;;;5.47;2.33;;;3.30;96.30;;;;;;4383780;32;20227;-63
2021/01/22 04:10:30;;;;;;;6.07;3.00;;;3.30;96.40;;;;;;4400322;32;20216;-66
2021/01/22 04:12:57;;;;;;;9.50;3.50;;;3.40;96.50;;;;;;4404433;32;20219;-67
2021/01/22 04:15:23;;;;;;;7.97;3.70;;;3.30;96.50;;;;;;4404223;32;20184;-65
2021/01/22 04:17:49;;;;;;;9.07;5.03;;;3.30;96.50;;;;;;4404710;32;20219;-65
2021/01/22 04:20:21;;;;;;;10.97;5.60;;;3.30;96.40;;;;;;4403205;32;20215;-65
2021/01/22 04:22:49;;;;;;;11.83;6.10;;;3.30;96.50;;;;;;4396438;32;20159;-65
2021/01/22 04:25:15;;;;;;;12.67;6.37;;;3.30;96.50;;;;;;4404874;32;20170;-67
2021/01/22 04:27:42;;;;;;;16.27;7.70;;;3.30;96.50;;;;;;4403789;32;20151;-65
2021/01/22 04:30:11;;;;;;;17.37;9.07;;;3.30;96.50;;;;;;4403472;32;20214;-65
2021/01/22 04:32:37;;;;;;;15.17;8.03;;;3.20;96.50;;;;;;4404999;32;20612;-66
2021/01/22 04:35:04;;;;;;;19.80;9.70;;;3.30;96.70;;;;;;4404384;32;20211;-67
2021/01/22 04:37:31;;;;;;;18.00;9.30;;;3.40;96.70;;;;;;4399689;32;20215;-67
2021/01/22 04:39:58;;;;;;;19.63;10.47;;;3.40;96.60;;;;;;4404166;32;20210;-64
2021/01/22 04:42:24;;;;;;;17.13;9.47;;;3.30;96.50;;;;;;4403695;32;20230;-64
2021/01/22 04:44:50;;;;;;;14.67;9.20;;;3.40;96.50;;;;;;4404678;32;20598;-66
2021/01/22 04:47:17;;;;;;;16.67;8.93;;;3.40;96.70;;;;;;4402504;32;20353;-64
2021/01/22 04:49:48;;;;;;;15.80;8.93;;;3.40;96.60;;;;;;4404772;32;20252;-66
2021/01/22 04:52:16;;;;;;;22.30;8.60;;;3.40;96.60;;;;;;4399935;32;20190;-65
2021/01/22 04:54:44;;;;;;;20.20;7.70;;;3.40;96.60;;;;;;4403955;32;20219;-64
2021/01/22 04:57:13;;;;;;;12.43;6.77;;;3.40;96.60;;;;;;4406389;32;20136;-64
2021/01/22 04:59:47;;;;;;;12.67;7.23;;;3.30;96.50;;;;;;4398780;32;20172;-65
2021/01/22 05:02:14;;;;;;;22.00;6.97;;;3.30;96.40;;;;;;4414810;32;20646;-66
2021/01/22 05:04:41;;;;;;;10.77;6.67;;;3.30;96.40;;;;;;4401576;32;20227;-65
2021/01/22 05:07:08;;;;;;;18.03;7.67;;;3.30;96.30;;;;;;4401044;32;20231;-67
2021/01/22 05:09:34;;;;;;;11.77;7.00;;;3.20;96.30;;;;;;4402016;32;20229;-65
2021/01/22 05:12:00;;;;;;;15.17;7.40;;;3.20;96.20;;;;;;4403851;32;20211;-65
2021/01/22 05:14:28;;;;;;;21.97;7.20;;;3.20;96.20;;;;;;4403547;32;20210;-69
2021/01/22 05:17:05;;;;;;;16.23;8.57;;;3.10;96.20;;;;;;4400387;32;20164;-66
2021/01/22 05:19:31;;;;;;;18.03;9.63;;;3.10;96.10;;;;;;4404022;32;20235;-65
2021/01/22 05:21:59;;;;;;;15.67;8.53;;;3.10;96.30;;;;;;4404574;32;20616;-66
2021/01/22 05:24:27;;;;;;;23.63;10.43;;;3.20;96.30;;;;;;4403394;32;20230;-66
2021/01/22 05:27:04;;;;;;;19.60;10.03;;;3.10;96.30;;;;;;4404003;32;20223;-65
2021/01/22 05:29:33;;;;;;;25.97;12.77;;;3.20;96.60;;;;;;4400820;32;20218;-67
2021/01/22 05:31:59;;;;;;;23.53;11.93;;;3.30;96.80;;;;;;4397301;32;20221;-66
2021/01/22 05:34:46;;;;;;;33.87;15.37;;;3.30;96.70;;;;;;4403525;32;20198;-65
2021/01/22 05:37:13;;;;;;;32.70;15.13;;;3.40;96.90;;;;;;4403927;32;20147;-66
2021/01/22 05:39:39;;;;;;;26.70;14.17;;;3.40;96.80;;;;;;4405028;32;20237;-67
2021/01/22 05:42:07;;;;;;;29.80;15.40;;;3.40;96.50;;;;;;4403916;32;20515;-68
2021/01/22 05:44:35;;;;;;;31.00;16.07;;;3.20;96.30;;;;;;4402342;32;20217;-67
2021/01/22 05:47:07;;;;;;;35.97;18.83;;;3.20;96.30;;;;;;4395133;32;20481;-67
2021/01/22 05:49:33;;;;;;;41.97;20.27;;;3.20;96.40;;;;;;4402849;32;20171;-67
2021/01/22 05:52:00;;;;;;;38.20;20.00;;;3.20;96.40;;;;;;4402668;32;20182;-66
2021/01/22 05:54:33;;;;;;;37.43;20.83;;;3.20;96.40;;;;;;4404985;32;20502;-67
2021/01/22 05:57:00;;;;;;;42.27;20.80;;;3.20;96.40;;;;;;4404638;32;20178;-67
2021/01/22 05:59:26;;;;;;;43.93;21.47;;;3.10;96.40;;;;;;4403934;32;20214;-67
2021/01/22 06:01:53;;;;;;;37.73;20.90;;;3.10;96.50;;;;;;4398871;32;20243;-65
2021/01/22 06:04:19;;;;;;;40.60;20.80;;;3.20;96.70;;;;;;4392723;32;20171;-65
2021/01/22 06:06:50;;;;;;;38.87;21.07;;;3.30;97.00;;;;;;4402028;32;20200;-65
2021/01/22 06:09:32;;;;;;;30.57;18.57;;;3.40;97.00;;;;;;4404997;32;20151;-66
2021/01/22 06:12:02;;;;;;;31.70;18.90;;;3.30;96.90;;;;;;4388748;32;20231;-66
2021/01/22 06:14:33;;;;;;;34.57;19.33;;;3.30;96.70;;;;;;4406802;32;20211;-68
2021/01/22 06:17:05;;;;;;;27.90;18.17;;;3.30;96.50;;;;;;4407810;32;20483;-67
2021/01/22 06:19:37;;;;;;;38.17;21.33;;;3.20;96.40;;;;;;4404505;32;20506;-66
2021/01/22 06:22:08;;;;;;;38.67;19.80;;;3.10;96.30;;;;;;4400628;32;20156;-68
2021/01/22 06:24:36;;;;;;;41.63;21.03;;;3.10;96.40;;;;;;4399380;32;20161;-65
2021/01/22 06:27:03;;;;;;;33.87;20.63;;;3.10;96.30;;;;;;4402626;32;20506;-65
2021/01/22 06:29:31;;;;;;;42.43;22.13;;;3.00;96.20;;;;;;4403480;32;20171;-64
2021/01/22 06:31:57;;;;;;;40.03;21.83;;;3.00;96.30;;;;;;4407451;32;20175;-64
2021/01/22 06:34:25;;;;;;;46.23;24.07;;;3.00;96.30;;;;;;4393037;32;20224;-65
2021/01/22 06:36:52;;;;;;;40.00;21.70;;;3.00;96.40;;;;;;4407501;32;20173;-65
2021/01/22 06:39:19;;;;;;;46.97;25.70;;;3.10;96.40;;;;;;4403137;32;20513;-66
2021/01/22 06:41:47;;;;;;;33.00;19.90;;;3.00;96.40;;;;;;4402643;32;20183;-66
2021/01/22 06:44:13;;;;;;;39.63;22.97;;;3.00;96.30;;;;;;4404725;32;20163;-67
2021/01/22 06:46:40;;;;;;;29.23;19.63;;;3.10;96.40;;;;;;4403662;32;20180;-67
2021/01/22 06:49:06;;;;;;;46.33;25.03;;;3.10;96.40;;;;;;4406403;32;20179;-67
2021/01/22 06:51:35;;;;;;;43.70;25.17;;;3.10;96.50;;;;;;4407775;32;20236;-65
2021/01/22 06:54:09;;;;;;;34.70;21.23;;;3.00;96.40;;;;;;4403923;32;20228;-65
2021/01/22 06:57:09;;;;;;;38.67;19.70;;;3.00;96.40;;;;;;4405140;32;20214;-65
2021/01/22 06:59:37;;;;;;;41.20;21.10;;;3.00;96.40;;;;;;4405853;32;20152;-65
2021/01/22 07:02:24;;;;;;;46.67;22.67;;;3.00;96.40;;;;;;4406783;32;20597;-67
2021/01/22 07:04:51;;;;;;;36.47;20.10;;;3.10;96.40;;;;;;4405853;32;20171;-67
2021/01/22 07:07:44;;;;;;;36.23;19.97;;;3.00;96.40;;;;;;4410919;32;20167;-68
2021/01/22 07:10:11;;;;;;;34.00;19.57;;;3.00;96.40;;;;;;4405303;32;20580;-64
2021/01/22 07:12:41;;;;;;;36.20;19.67;;;3.00;96.40;;;;;;4419537;32;20171;-66
2021/01/22 07:15:28;;;;;;;40.23;19.97;;;2.90;96.40;;;;;;4405395;32;20283;-66
2021/01/22 07:18:01;;;;;;;36.67;19.90;;;2.90;96.40;;;;;;4404636;32;20211;-65
2021/01/22 07:20:30;;;;;;;33.93;19.07;;;2.90;96.50;;;;;;4403612;32;20160;-66
2021/01/22 07:22:59;;;;;;;29.97;18.13;;;2.90;96.50;;;;;;4406083;32;20152;-64
2021/01/22 07:25:35;;;;;;;42.37;21.10;;;2.90;96.40;;;;;;4396350;32;20564;-66
2021/01/22 07:28:07;;;;;;;28.97;18.57;;;2.90;96.40;;;;;;4403417;32;20223;-65
2021/01/22 07:30:44;;;;;;;37.27;18.93;;;2.90;96.60;;;;;;4395970;32;20208;-65
2021/01/22 07:33:36;;;;;;;32.67;18.23;;;2.90;96.50;;;;;;4398017;32;20179;-65
2021/01/22 07:36:07;;;;;;;36.60;19.70;;;2.90;96.50;;;;;;4398772;32;20207;-66
2021/01/22 07:38:36;;;;;;;43.30;21.23;;;3.00;96.50;;;;;;4396945;32;20301;-66
2021/01/22 07:41:03;;;;;;;25.20;16.13;;;2.90;96.50;;;;;;4398787;32;20234;-65
2021/01/22 07:43:29;;;;;;;31.07;19.50;;;2.90;96.70;;;;;;4398165;32;20207;-65
2021/01/22 07:46:10;;;;;;;38.50;17.53;;;3.00;96.60;;;;;;4397739;32;20227;-68
2021/01/22 07:48:37;;;;;;;28.10;15.47;;;2.90;96.60;;;;;;4397850;32;20743;-67
2021/01/22 07:51:32;;;;;;;28.53;16.20;;;3.00;96.60;;;;;;4400034;32;20256;-65
2021/01/22 07:54:00;;;;;;;35.33;18.73;;;3.00;96.50;;;;;;4397943;32;20191;-66
2021/01/22 07:56:33;;;;;;;24.63;14.20;;;2.90;96.50;;;;;;4398492;32;20215;-66
2021/01/22 07:59:00;;;;;;;26.03;14.77;;;2.90;96.60;;;;;;4400766;32;20202;-66
2021/01/22 08:01:26;;;;;;;23.37;14.80;;;3.00;96.70;;;;;;4396037;32;20573;-67
2021/01/22 08:03:52;;;;;;;32.90;15.87;;;3.00;96.70;;;;;;4398025;32;20151;-67
2021/01/22 08:06:19;;;;;;;38.03;17.57;;;3.10;96.70;;;;;;4397316;32;20171;-66
2021/01/22 08:08:45;;;;;;;28.83;15.83;;;3.10;96.70;;;;;;4397748;32;20258;-65
2021/01/22 08:11:19;;;;;;;33.23;16.67;;;3.10;96.90;;;;;;4397038;32;20245;-66
2021/01/22 08:13:45;;;;;;;33.87;17.30;;;3.30;96.90;;;;;;4396828;32;20222;-67
2021/01/22 08:16:13;;;;;;;27.77;15.10;;;3.20;96.90;;;;;;4400737;32;20682;-66
2021/01/22 08:18:45;;;;;;;27.20;14.67;;;3.20;96.90;;;;;;4395022;32;20170;-65
2021/01/22 08:21:11;;;;;;;31.17;16.80;;;3.20;96.90;;;;;;4394840;32;20161;-67
2021/01/22 08:23:42;;;;;;;26.87;14.73;;;3.20;96.80;;;;;;4397343;32;20215;-65
2021/01/22 08:26:09;;;;;;;34.20;16.13;;;3.20;96.80;;;;;;4397868;32;20179;-68
2021/01/22 08:28:37;;;;;;;31.30;14.23;;;3.10;96.80;;;;;;4399586;32;20595;-67
2021/01/22 08:31:03;;;;;;;24.07;12.90;;;3.10;96.90;;;;;;4397486;32;20236;-66
2021/01/22 08:33:32;;;;;;;26.43;14.47;;;3.20;97.00;;;;;;4392699;32;20596;-66
2021/01/22 08:36:00;;;;;;;23.17;14.27;;;3.20;96.90;;;;;;4392601;32;20183;-67
2021/01/22 08:38:26;;;;;;;31.00;15.00;;;3.20;96.80;;;;;;4395564;32;20148;-66
2021/01/22 08:40:53;;;;;;;32.83;14.70;;;3.30;96.80;;;;;;4394671;32;20163;-68
2021/01/22 08:43:19;;;;;;;25.63;12.37;;;3.20;96.80;;;;;;4396956;32;20220;-66
2021/01/22 08:46:06;;;;;;;27.57;13.57;;;3.30;96.80;;;;;;4397805;32;20137;-67
2021/01/22 08:48:32;;;;;;;24.57;13.10;;;3.20;96.70;;;;;;4394891;32;20207;-66
2021/01/22 08:50:59;;;;;;;25.50;12.07;;;3.30;96.90;;;;;;4395438;32;20241;-66
2021/01/22 08:53:26;;;;;;;28.30;14.80;;;3.30;96.90;;;;;;4394415;32;20171;-67
2021/01/22 08:56:10;;;;;;;25.47;13.07;;;3.30;97.00;;;;;;4396347;32;20179;-66
2021/01/22 08:59:02;;;;;;;26.37;13.77;;;3.30;97.00;;;;;;4394270;32;20232;-65
2021/01/22 09:01:48;;;;;;;25.03;13.87;;;3.40;97.00;;;;;;4394263;32;20148;-65
2021/01/22 09:04:31;;;;;;;28.63;14.07;;;3.30;96.90;;;;;;4394507;32;20171;-68
2021/01/22 09:06:59;;;;;;;31.37;15.53;;;3.30;97.00;;;;;;4394245;32;20689;-66
2021/01/22 09:09:43;;;;;;;26.90;14.10;;;3.40;97.00;;;;;;4394614;32;20214;-65
2021/01/22 09:12:11;;;;;;;31.43;14.90;;;3.50;97.10;;;;;;4393782;32;20215;-67
2021/01/22 09:14:47;;;;;;;35.17;16.67;;;3.50;97.10;;;;;;4393081;32;20285;-67
2021/01/22 09:17:26;;;;;;;31.77;15.33;;;3.60;97.20;;;;;;4395097;32;20198;-67
2021/01/22 09:19:58;;;;;;;28.53;16.20;;;3.60;97.10;;;;;;4391984;32;20168;-67
2021/01/22 09:22:25;;;;;;;28.67;16.70;;;3.50;97.00;;;;;;4394884;32;20310;-66
2021/01/22 09:24:51;;;;;;;30.97;17.10;;;3.60;97.00;;;;;;4393624;32;20207;-66
2021/01/22 09:27:18;;;;;;;28.47;15.50;;;3.60;97.00;;;;;;4391961;32;20288;-66
2021/01/22 09:29:44;;;;;;;26.87;17.00;;;3.60;97.00;;;;;;4393076;32;20232;-67
2021/01/22 09:32:10;;;;;;;25.37;16.50;;;3.60;97.10;;;;;;4393370;32;20171;-67
2021/01/22 09:34:38;;;;;;;35.80;18.70;;;3.60;97.10;;;;;;4394234;32;20246;-67
2021/01/22 09:37:07;;;;;;;30.37;17.50;;;3.60;97.10;;;;;;4395029;32;20581;-66
2021/01/22 09:39:34;;;;;;;38.37;19.83;;;3.60;97.10;;;;;;4394282;32;20147;-67
2021/01/22 09:42:04;;;;;;;28.70;17.30;;;3.60;97.10;;;;;;4394957;32;20234;-65
2021/01/22 09:44:30;;;;;;;29.13;15.13;;;3.70;97.00;;;;;;4392074;32;20496;-66
2021/01/22 09:46:57;;;;;;;26.93;17.53;;;3.70;97.10;;;;;;4395568;32;20174;-66
2021/01/22 09:49:25;;;;;;;36.30;19.83;;;3.70;97.10;;;;;;4393874;32;20156;-67
2021/01/22 09:51:52;;;;;;;33.40;18.13;;;3.60;97.00;;;;;;4395731;32;20160;-66
2021/01/22 09:54:18;;;;;;;31.00;18.00;;;3.70;97.00;;;;;;4397995;32;20157;-65
2021/01/22 09:56:45;;;;;;;33.20;16.80;;;3.70;97.10;;;;;;4392321;32;20152;-67
2021/01/22 09:59:11;;;;;;;31.87;16.33;;;3.70;97.20;;;;;;4395034;32;20222;-68
2021/01/22 10:01:38;;;;;;;36.37;16.17;;;3.80;97.30;;;;;;4390740;32;20289;-67
2021/01/22 10:04:08;;;;;;;25.00;14.63;;;3.80;97.30;;;;;;4393431;32;21636;-66
2021/01/22 10:06:34;;;;;;;33.60;15.60;;;3.90;97.30;;;;;;4391233;32;20170;-67
2021/01/22 10:09:02;;;;;;;28.63;15.13;;;4.00;97.40;;;;;;4394000;32;20164;-65
2021/01/22 10:11:29;;;;;;;29.80;14.37;;;4.10;97.40;;;;;;4394425;32;20226;-66
2021/01/22 10:13:56;;;;;;;29.17;14.47;;;4.20;97.50;;;;;;4392275;32;20235;-66
2021/01/22 10:16:30;;;;;;;24.43;13.40;;;4.20;97.50;;;;;;4392945;32;20184;-66
2021/01/22 10:18:57;;;;;;;27.97;13.77;;;4.20;97.50;;;;;;4394210;32;20249;-65
2021/01/22 10:21:24;;;;;;;27.60;12.87;;;4.30;97.40;;;;;;4391985;32;20183;-66
2021/01/22 10:23:52;;;;;;;23.37;13.10;;;4.30;97.50;;;;;;4391815;32;20174;-66
2021/01/22 10:26:21;;;;;;;22.43;13.73;;;4.40;97.50;;;;;;4394724;32;20309;-65
2021/01/22 10:28:49;;;;;;;27.67;12.23;;;4.40;97.50;;;;;;4392880;32;20155;-67
2021/01/22 10:31:16;;;;;;;22.93;12.13;;;4.50;97.50;;;;;;4394059;32;20650;-68
2021/01/22 10:33:43;;;;;;;26.90;11.50;;;4.60;97.50;;;;;;4393398;32;20179;-68
2021/01/22 10:36:10;;;;;;;23.57;11.57;;;4.60;97.40;;;;;;4395792;32;20518;-66
2021/01/22 10:38:36;;;;;;;21.07;9.27;;;4.60;97.30;;;;;;4394746;32;20162;-66
2021/01/22 10:41:03;;;;;;;24.67;11.90;;;4.60;97.30;;;;;;4394819;32;20215;-66
2021/01/22 10:43:31;;;;;;;18.07;10.07;;;4.70;97.40;;;;;;4395034;32;20190;-65
2021/01/22 10:45:59;;;;;;;25.47;10.47;;;4.90;97.40;;;;;;4391536;32;20176;-66
2021/01/22 10:48:26;;;;;;;19.80;8.90;;;4.80;97.30;;;;;;4394620;32;20205;-66
2021/01/22 10:50:53;;;;;;;18.93;7.83;;;4.80;97.30;;;;;;4388917;32;20175;-65
2021/01/22 10:53:20;;;;;;;14.33;8.00;;;5.10;98.10;;;;;;4394936;32;20508;-65
2021/01/22 10:55:46;;;;;;;24.50;9.13;;;5.20;98.10;;;;;;4391534;32;20158;-66
2021/01/22 10:58:14;;;;;;;20.97;8.33;;;5.20;97.50;;;;;;4393266;32;20311;-66
2021/01/22 11:00:42;;;;;;;21.87;8.50;;;5.10;97.40;;;;;;4392652;32;20225;-66
2021/01/22 11:03:08;;;;;;;23.80;8.40;;;5.10;97.20;;;;;;4396914;32;20207;-66
2021/01/22 11:05:42;;;;;;;17.37;8.83;;;5.10;97.20;;;;;;4394747;32;20162;-66
2021/01/22 11:08:11;;;;;;;21.70;7.97;;;5.20;97.30;;;;;;4392933;32;20451;-67
2021/01/22 11:10:38;;;;;;;24.87;8.13;;;5.20;97.20;;;;;;4396472;32;20163;-66
2021/01/22 11:13:04;;;;;;;19.13;7.80;;;5.30;97.30;;;;;;4394885;32;20623;-66
2021/01/22 11:15:33;;;;;;;17.30;7.00;;;5.30;97.20;;;;;;4399086;32;20197;-66
2021/01/22 11:18:06;;;;;;;14.50;6.13;;;5.30;96.80;;;;;;4399176;32;20179;-67
2021/01/22 11:20:32;;;;;;;19.70;6.90;;;5.30;96.90;;;;;;4395853;32;20159;-66
2021/01/22 11:23:04;;;;;;;15.33;6.83;;;5.30;97.00;;;;;;4394192;32;20226;-66
2021/01/22 11:25:32;;;;;;;14.43;6.50;;;5.30;97.00;;;;;;4395182;32;20530;-65
2021/01/22 11:28:01;;;;;;;11.80;6.03;;;5.40;96.50;;;;;;4390218;32;20159;-66
2021/01/22 11:30:28;;;;;;;14.37;6.37;;;5.40;96.40;;;;;;4394526;32;20581;-66
2021/01/22 11:32:55;;;;;;;13.67;6.30;;;5.40;96.60;;;;;;4401200;32;20174;-67
2021/01/22 11:35:23;;;;;;;19.13;7.10;;;5.40;96.40;;;;;;4396462;32;20160;-67
2021/01/22 11:37:51;;;;;;;17.20;6.70;;;5.40;96.60;;;;;;4396549;32;20193;-67
2021/01/22 11:40:18;;;;;;;16.40;6.77;;;5.40;96.50;;;;;;4391250;32;20276;-65
2021/01/22 11:42:47;;;;;;;13.73;6.27;;;5.40;96.60;;;;;;4395567;32;20172;-66
2021/01/22 11:45:14;;;;;;;12.47;6.07;;;5.40;96.50;;;;;;4393061;32;20155;-66
2021/01/22 11:47:41;;;;;;;17.90;6.40;;;5.40;96.40;;;;;;4392978;32;20282;-66
2021/01/22 11:50:09;;;;;;;16.27;6.23;;;5.40;96.20;;;;;;4392346;32;20164;-65
2021/01/22 11:52:36;;;;;;;12.63;5.43;;;5.40;96.30;;;;;;4394087;32;20152;-69
2021/01/22 11:55:03;;;;;;;13.73;5.33;;;5.50;96.30;;;;;;4393682;32;20253;-67
2021/01/22 11:57:29;;;;;;;12.93;5.73;;;5.50;96.10;;;;;;4396470;32;20640;-66
2021/01/22 11:59:58;;;;;;;12.77;5.23;;;5.50;96.00;;;;;;4395625;32;20493;-66
2021/01/22 12:02:25;;;;;;;18.60;5.13;;;5.50;95.70;;;;;;4397894;32;20489;-66
2021/01/22 12:04:53;;;;;;;13.63;5.47;;;5.50;95.70;;;;;;4396653;32;20257;-66
2021/01/22 12:07:20;;;;;;;16.63;5.93;;;5.50;95.30;;;;;;4395247;32;20192;-67
2021/01/22 12:09:47;;;;;;;13.37;4.97;;;5.50;95.20;;;;;;4392799;32;20218;-66
2021/01/22 12:12:15;;;;;;;18.50;4.73;;;5.60;94.90;;;;;;4396927;32;20163;-67
2021/01/22 12:14:43;;;;;;;16.83;4.80;;;5.50;94.90;;;;;;4177839;32;7010651;-66
2021/01/22 12:17:09;;;;;;;16.23;5.20;;;5.50;94.20;;;;;;4396733;32;20531;-65
2021/01/22 12:19:37;;;;;;;10.90;3.90;;;5.60;94.10;;;;;;4393917;32;20163;-66
2021/01/22 12:22:04;;;;;;;15.10;4.27;;;5.60;93.40;;;;;;4397178;32;20300;-67
2021/01/22 12:24:30;;;;;;;10.83;4.47;;;5.60;93.40;;;;;;4394159;32;20183;-66
2021/01/22 12:26:58;;;;;;;12.97;4.50;;;5.60;93.30;;;;;;4396455;32;20245;-68
2021/01/22 12:29:24;;;;;;;14.20;4.10;;;5.80;93.30;;;;;;4397159;32;20227;-66
2021/01/22 12:31:50;;;;;;;11.93;4.77;;;5.80;93.00;;;;;;4395269;32;20660;-66
2021/01/22 12:34:17;;;;;;;13.23;4.27;;;5.80;92.30;;;;;;4396871;32;20260;-66
2021/01/22 12:36:43;;;;;;;18.17;4.80;;;5.70;92.40;;;;;;4395441;32;20156;-65
2021/01/22 12:39:10;;;;;;;11.43;4.53;;;5.70;92.50;;;;;;4398101;32;20973;-66
2021/01/22 12:41:36;;;;;;;13.73;3.93;;;5.90;92.30;;;;;;4397705;32;20315;-66
2021/01/22 12:44:04;;;;;;;11.07;4.20;;;5.90;92.40;;;;;;4399634;32;20179;-66
2021/01/22 12:46:30;;;;;;;14.57;3.77;;;6.10;92.10;;;;;;4394628;32;20281;-66
2021/01/22 12:48:57;;;;;;;13.67;4.30;;;6.00;91.50;;;;;;4390970;32;20318;-66
2021/01/22 12:51:24;;;;;;;15.87;4.33;;;5.90;91.70;;;;;;4393738;32;20285;-67